Terminal Aerodrome Forecast
Issued by NWS

Home | Current Version | Previous Version | Text Only | Print | Product List | Glossary On
Versions: 1 2 3 4 5 6 7 8 9 10 11 12
000
FTUS45 KABQ 241725
TAFTCC
TAF
KTCC 241725Z 2418/2518 04022G32KT P6SM SCT035
     FM250100 05025G35KT P6SM BKN025
     FM250600 05020G30KT P6SM OVC015
     FM250900 04015KT P6SM OVC012
     FM251500 03010KT P6SM BKN025=

USA.gov is the U.S. government's official web portal to all federal, state and local government web resources and services.